createdAt,value
2023-05-08T00:02:12.654Z,10.45
2023-05-08T00:04:39.168Z,10.30
2023-05-08T00:07:05.822Z,10.60
2023-05-08T00:09:32.351Z,10.85
2023-05-08T00:11:58.984Z,11.38
2023-05-08T00:14:25.689Z,11.43
2023-05-08T00:16:52.442Z,11.68
2023-05-08T00:19:19.001Z,11.43
2023-05-08T00:21:45.519Z,11.38
2023-05-08T00:24:12.247Z,10.88
2023-05-08T00:26:38.864Z,10.57
2023-05-08T00:29:06.745Z,11.10
2023-05-08T00:31:34.004Z,10.63
2023-05-08T00:34:00.715Z,11.05
2023-05-08T00:36:27.567Z,10.93
2023-05-08T00:38:54.303Z,11.32
2023-05-08T00:41:21.483Z,10.88
2023-05-08T00:43:48.096Z,11.85
2023-05-08T00:46:14.697Z,12.57
2023-05-08T00:48:42.357Z,12.40
2023-05-08T00:51:10.130Z,13.15
2023-05-08T00:53:40.691Z,12.88
2023-05-08T00:56:11.909Z,12.95
2023-05-08T00:58:40.649Z,12.95
2023-05-08T01:01:07.373Z,13.15
2023-05-08T01:03:36.105Z,12.68
2023-05-08T01:06:03.837Z,13.65
2023-05-08T01:08:31.885Z,12.90
2023-05-08T01:11:24.981Z,12.88
2023-05-08T01:14:14.732Z,13.00
2023-05-08T01:16:50.154Z,13.15
2023-05-08T01:19:35.438Z,13.00
2023-05-08T01:22:10.842Z,13.85
2023-05-08T01:24:58.680Z,12.25
2023-05-08T01:27:39.191Z,12.52
2023-05-08T01:30:50.747Z,12.90
2023-05-08T01:33:33.445Z,12.95
2023-05-08T01:36:09.114Z,13.00
2023-05-08T01:39:12.575Z,13.50
2023-05-08T01:41:41.126Z,13.27
2023-05-08T01:44:17.409Z,13.38
2023-05-08T01:46:50.037Z,13.45
2023-05-08T01:49:27.880Z,14.13
2023-05-08T01:52:03.017Z,14.15
2023-05-08T01:54:36.450Z,13.68
2023-05-08T01:57:04.662Z,13.75
2023-05-08T01:59:33.601Z,14.60
2023-05-08T02:02:02.695Z,14.25
2023-05-08T02:04:30.540Z,14.07
2023-05-08T02:06:58.981Z,13.10
2023-05-08T02:09:28.393Z,14.80
2023-05-08T02:11:55.550Z,14.90
2023-05-08T02:14:22.758Z,14.98
2023-05-08T02:16:51.865Z,16.20
2023-05-08T02:19:20.403Z,16.52
2023-05-08T02:21:48.201Z,16.55
2023-05-08T02:24:15.696Z,17.40
2023-05-08T02:26:44.842Z,16.15
2023-05-08T02:29:11.476Z,16.95
2023-05-08T02:31:41.747Z,18.17
2023-05-08T02:34:09.691Z,18.23
2023-05-08T02:36:38.225Z,17.38
2023-05-08T02:39:05.985Z,18.40
2023-05-08T02:41:33.765Z,19.65
2023-05-08T02:44:00.574Z,19.65
2023-05-08T02:46:47.996Z,19.08
2023-05-08T02:49:39.461Z,19.80
2023-05-08T02:52:13.786Z,19.67
2023-05-08T02:55:01.291Z,20.33
2023-05-08T02:57:48.130Z,20.38
2023-05-08T03:00:22.336Z,20.17
2023-05-08T03:03:00.005Z,19.85
2023-05-08T03:05:32.610Z,19.90
2023-05-08T03:08:15.343Z,20.42
2023-05-08T03:10:44.403Z,19.30
2023-05-08T03:13:12.471Z,18.83
2023-05-08T03:15:45.416Z,18.55
2023-05-08T03:18:16.697Z,18.40
2023-05-08T03:20:49.610Z,19.13
2023-05-08T03:23:19.987Z,18.02
2023-05-08T03:25:46.702Z,17.08
2023-05-08T03:28:14.992Z,17.40
2023-05-08T03:30:42.675Z,19.27
2023-05-08T03:33:12.960Z,17.73
2023-05-08T03:35:39.761Z,18.63
2023-05-08T03:38:08.497Z,17.58
2023-05-08T03:40:38.501Z,17.55
2023-05-08T03:43:08.857Z,17.60
2023-05-08T03:45:37.216Z,17.37
2023-05-08T03:48:06.918Z,17.58
2023-05-08T03:50:36.245Z,17.63
2023-05-08T03:53:04.444Z,17.65
2023-05-08T03:55:32.188Z,17.85
2023-05-08T03:58:17.657Z,17.17
2023-05-08T04:00:58.673Z,17.05
2023-05-08T04:03:48.019Z,17.52
2023-05-08T04:06:22.730Z,17.50
2023-05-08T04:09:00.426Z,18.27
2023-05-08T04:11:35.596Z,16.90
2023-05-08T04:14:07.599Z,16.95
2023-05-08T04:16:45.815Z,17.55
2023-05-08T04:19:29.172Z,17.73
2023-05-08T04:22:02.147Z,18.10
2023-05-08T04:24:31.870Z,17.85
2023-05-08T04:26:59.401Z,18.17
2023-05-08T04:29:26.171Z,18.35
2023-05-08T04:31:53.458Z,18.63
2023-05-08T04:34:20.691Z,18.98
2023-05-08T04:36:48.577Z,18.25
2023-05-08T04:39:15.130Z,19.20
2023-05-08T04:41:42.299Z,20.90
2023-05-08T04:44:09.013Z,20.52
2023-05-08T04:46:35.678Z,20.95
2023-05-08T04:49:02.614Z,20.85
2023-05-08T04:51:31.827Z,21.10
2023-05-08T04:53:58.421Z,19.95
2023-05-08T04:56:25.187Z,21.08
2023-05-08T04:58:51.686Z,20.83
2023-05-08T05:01:18.701Z,21.67
2023-05-08T05:03:45.300Z,22.23
2023-05-08T05:06:12.484Z,22.55
2023-05-08T05:08:38.955Z,22.95
2023-05-08T05:11:05.722Z,23.20
2023-05-08T05:13:32.545Z,24.23
2023-05-08T05:15:59.969Z,27.02
2023-05-08T05:18:26.604Z,37.25
2023-05-08T05:20:54.143Z,26.05
2023-05-08T05:23:21.293Z,31.08
2023-05-08T05:25:47.859Z,28.65
2023-05-08T05:28:14.398Z,28.05
2023-05-08T05:30:41.017Z,30.90
2023-05-08T05:33:07.781Z,25.52
2023-05-08T05:35:34.539Z,28.02
2023-05-08T05:38:01.519Z,24.95
2023-05-08T05:40:28.811Z,32.53
2023-05-08T05:42:55.350Z,27.70
2023-05-08T05:45:21.955Z,24.60
2023-05-08T05:47:50.112Z,24.75
2023-05-08T05:50:18.721Z,27.90
2023-05-08T05:52:46.329Z,24.50
2023-05-08T05:55:13.519Z,23.98
2023-05-08T05:57:40.752Z,23.65
2023-05-08T06:00:08.827Z,23.77
2023-05-08T06:02:41.817Z,24.38
2023-05-08T06:05:11.183Z,24.35
2023-05-08T06:07:38.293Z,23.85
2023-05-08T06:10:05.283Z,24.38
2023-05-08T06:12:31.901Z,24.08
2023-05-08T06:14:59.733Z,25.98
2023-05-08T06:17:26.880Z,25.00
2023-05-08T06:19:55.928Z,26.33
2023-05-08T06:22:23.371Z,24.98
2023-05-08T06:24:53.467Z,25.48
2023-05-08T06:27:21.071Z,26.23
2023-05-08T06:29:50.675Z,26.55
2023-05-08T06:32:18.113Z,27.33
2023-05-08T06:34:44.941Z,27.10
2023-05-08T06:37:11.586Z,26.83
2023-05-08T06:39:38.196Z,28.33
2023-05-08T06:42:08.686Z,27.73
2023-05-08T06:44:38.485Z,27.90
2023-05-08T06:47:04.972Z,28.40
2023-05-08T06:49:31.459Z,28.70
2023-05-08T06:51:58.341Z,29.33
2023-05-08T06:54:25.010Z,28.75
2023-05-08T06:56:53.585Z,30.17
2023-05-08T06:59:21.334Z,28.67
2023-05-08T07:01:47.960Z,29.83
2023-05-08T07:04:14.670Z,29.48
2023-05-08T07:06:41.277Z,31.17
2023-05-08T07:09:07.817Z,31.70
2023-05-08T07:11:34.413Z,31.70
2023-05-08T07:14:01.000Z,31.67
2023-05-08T07:16:27.593Z,32.25
2023-05-08T07:18:54.135Z,31.60
2023-05-08T07:21:21.315Z,31.83
2023-05-08T07:23:50.305Z,32.38
2023-05-08T07:26:16.986Z,32.47
2023-05-08T07:28:43.697Z,31.25
2023-05-08T07:31:10.306Z,32.13
2023-05-08T07:33:37.506Z,34.42
2023-05-08T07:36:04.213Z,32.33
2023-05-08T07:38:30.751Z,33.05
2023-05-08T07:40:57.901Z,32.95
2023-05-08T07:43:24.429Z,33.25
2023-05-08T07:45:51.169Z,33.00
2023-05-08T07:48:17.919Z,33.55
2023-05-08T07:50:44.773Z,32.88
2023-05-08T07:53:11.310Z,32.40
2023-05-08T07:55:37.798Z,34.38
2023-05-08T07:58:04.351Z,32.63
2023-05-08T08:00:31.438Z,32.97
2023-05-08T08:02:58.110Z,31.67
2023-05-08T08:05:24.838Z,32.53
2023-05-08T08:07:51.388Z,32.33
2023-05-08T08:10:17.901Z,31.35
2023-05-08T08:12:44.552Z,33.03
2023-05-08T08:15:11.455Z,29.70
2023-05-08T08:17:38.215Z,30.95
2023-05-08T08:20:05.436Z,31.00
2023-05-08T08:22:31.967Z,30.95
2023-05-08T08:24:58.519Z,30.00
2023-05-08T08:27:25.062Z,31.63
2023-05-08T08:29:56.320Z,33.25
2023-05-08T08:32:31.278Z,32.05
2023-05-08T08:34:57.818Z,32.42
2023-05-08T08:37:26.199Z,34.65
2023-05-08T08:39:53.205Z,33.60
2023-05-08T08:42:19.757Z,32.30
2023-05-08T08:44:46.532Z,35.25
2023-05-08T08:47:16.363Z,31.70
2023-05-08T08:49:49.719Z,32.47
2023-05-08T08:52:43.401Z,31.38
2023-05-08T08:55:15.083Z,31.05
2023-05-08T08:57:52.643Z,29.90
2023-05-08T09:00:21.185Z,30.45
2023-05-08T09:02:48.795Z,31.02
2023-05-08T09:05:15.790Z,29.75
2023-05-08T09:07:43.791Z,28.83
2023-05-08T09:10:15.826Z,30.08
2023-05-08T09:12:42.583Z,30.75
2023-05-08T09:15:09.415Z,30.17
2023-05-08T09:17:36.146Z,31.30
2023-05-08T09:20:03.644Z,30.58
2023-05-08T09:22:30.390Z,31.17
2023-05-08T09:25:01.069Z,31.75
2023-05-08T09:27:29.078Z,31.27
2023-05-08T09:30:01.841Z,30.02
2023-05-08T09:32:30.050Z,30.08
2023-05-08T09:34:56.861Z,31.85
2023-05-08T09:37:24.766Z,31.20
2023-05-08T09:39:51.359Z,30.30
2023-05-08T09:42:17.949Z,31.27
2023-05-08T09:44:45.955Z,32.22
2023-05-08T09:47:22.982Z,32.45
2023-05-08T09:50:00.647Z,31.90
2023-05-08T09:52:28.753Z,31.65
2023-05-08T09:54:59.583Z,32.83
2023-05-08T09:57:30.373Z,33.35
2023-05-08T10:00:12.275Z,33.08
2023-05-08T10:02:53.644Z,32.10
2023-05-08T10:05:34.634Z,33.55
2023-05-08T10:08:21.803Z,32.75
2023-05-08T10:10:48.768Z,33.70
2023-05-08T10:13:15.599Z,32.78
2023-05-08T10:15:43.581Z,33.20
2023-05-08T10:18:12.104Z,33.05
2023-05-08T10:20:46.607Z,35.72
2023-05-08T10:23:19.047Z,35.08
2023-05-08T10:25:47.052Z,33.95
2023-05-08T10:28:18.353Z,37.08
2023-05-08T10:30:48.501Z,34.40
2023-05-08T10:33:19.971Z,34.30
2023-05-08T10:35:46.741Z,35.83
2023-05-08T10:38:15.317Z,34.33
2023-05-08T10:40:41.941Z,37.08
2023-05-08T10:43:09.891Z,35.20
2023-05-08T10:45:37.611Z,34.42
2023-05-08T10:48:15.951Z,35.47
2023-05-08T10:51:08.342Z,38.67
2023-05-08T10:53:40.913Z,34.85
2023-05-08T10:56:07.626Z,36.67
2023-05-08T10:58:37.110Z,35.85
2023-05-08T11:01:09.440Z,36.00
2023-05-08T11:03:44.499Z,37.92
2023-05-08T11:06:11.655Z,38.80
2023-05-08T11:08:47.717Z,35.67
2023-05-08T11:11:21.875Z,40.08
2023-05-08T11:13:54.697Z,38.33
2023-05-08T11:16:56.390Z,38.88
2023-05-08T11:19:26.949Z,38.35
2023-05-08T11:22:15.032Z,38.58
2023-05-08T11:24:55.755Z,40.00
2023-05-08T11:27:37.938Z,38.25
2023-05-08T11:30:32.104Z,38.20
2023-05-08T11:32:59.674Z,38.72
2023-05-08T11:35:51.329Z,37.40
2023-05-08T11:38:38.119Z,38.83
2023-05-08T11:41:04.654Z,40.15
2023-05-08T11:43:34.237Z,39.08
2023-05-08T11:46:07.127Z,43.17
2023-05-08T11:48:34.726Z,38.65
2023-05-08T11:51:02.508Z,41.42
2023-05-08T11:53:32.780Z,38.38
2023-05-08T11:56:00.594Z,36.72
2023-05-08T11:58:27.161Z,39.17
2023-05-08T12:00:54.518Z,37.63
2023-05-08T12:03:22.942Z,37.08
2023-05-08T12:05:51.093Z,34.45
2023-05-08T12:08:18.391Z,36.45
2023-05-08T12:10:53.470Z,35.33
2023-05-08T12:13:24.136Z,32.15
2023-05-08T12:15:53.477Z,32.83
2023-05-08T12:18:21.337Z,34.70
2023-05-08T12:20:59.096Z,33.60
2023-05-08T12:23:26.427Z,31.75
2023-05-08T12:25:55.294Z,30.05
2023-05-08T12:28:22.790Z,29.55
2023-05-08T12:30:50.080Z,29.02
2023-05-08T12:33:18.472Z,31.42
2023-05-08T12:35:45.209Z,30.98
2023-05-08T12:38:14.201Z,30.48
2023-05-08T12:40:43.250Z,31.70
2023-05-08T12:43:10.270Z,33.70
2023-05-08T12:45:39.382Z,31.00
2023-05-08T12:48:18.490Z,30.33
2023-05-08T12:50:46.289Z,30.40
2023-05-08T12:53:15.306Z,27.67
2023-05-08T12:55:54.788Z,26.10
2023-05-08T12:58:25.448Z,24.58
2023-05-08T13:00:53.161Z,25.30
2023-05-08T13:03:26.390Z,24.92
2023-05-08T13:05:54.745Z,22.88
2023-05-08T13:08:33.395Z,22.17
2023-05-08T13:11:00.800Z,21.33
2023-05-08T13:13:29.952Z,22.02
2023-05-08T13:15:56.756Z,21.70
2023-05-08T13:18:27.666Z,21.58
2023-05-08T13:20:55.351Z,22.63
2023-05-08T13:23:22.552Z,20.00
2023-05-08T13:25:49.384Z,21.27
2023-05-08T13:28:16.119Z,18.65
2023-05-08T13:30:42.949Z,17.70
2023-05-08T13:33:09.677Z,17.67
2023-05-08T13:35:36.485Z,16.73
2023-05-08T13:38:03.161Z,17.25
2023-05-08T13:40:30.167Z,18.10
2023-05-08T13:42:56.782Z,17.60
2023-05-08T13:45:23.359Z,18.58
2023-05-08T13:47:50.975Z,20.17
2023-05-08T13:50:19.805Z,19.00
2023-05-08T13:52:46.360Z,19.23
2023-05-08T13:55:13.996Z,18.88
2023-05-08T13:57:41.203Z,18.70
2023-05-08T14:00:09.345Z,21.33
2023-05-08T14:02:37.392Z,20.90
2023-05-08T14:05:05.000Z,20.65
2023-05-08T14:07:31.484Z,18.55
2023-05-08T14:09:58.156Z,18.73
2023-05-08T14:12:24.646Z,19.52
2023-05-08T14:14:51.200Z,19.15
2023-05-08T14:17:17.895Z,19.25
2023-05-08T14:19:45.935Z,19.25
2023-05-08T14:22:12.541Z,19.23
2023-05-08T14:24:39.524Z,19.45
2023-05-08T14:27:06.295Z,20.27
2023-05-08T14:29:34.196Z,21.60
2023-05-08T14:32:01.155Z,23.52
2023-05-08T14:34:27.917Z,24.15
2023-05-08T14:36:54.539Z,24.73
2023-05-08T14:39:21.121Z,25.92
2023-05-08T14:42:05.183Z,26.33
2023-05-08T14:44:34.352Z,25.98
2023-05-08T14:47:00.908Z,25.60
2023-05-08T14:49:36.891Z,25.13
2023-05-08T14:52:05.602Z,29.05
2023-05-08T14:54:32.335Z,25.77
2023-05-08T14:56:59.225Z,27.52
2023-05-08T14:59:25.839Z,24.10
2023-05-08T15:01:52.469Z,28.23
2023-05-08T15:04:19.261Z,27.10
2023-05-08T15:06:46.088Z,24.40
2023-05-08T15:09:12.766Z,26.38
2023-05-08T15:11:39.365Z,24.38
2023-05-08T15:14:06.141Z,26.67
2023-05-08T15:16:32.875Z,25.20
2023-05-08T15:19:00.238Z,26.95
2023-05-08T15:21:27.306Z,26.38
2023-05-08T15:23:55.167Z,25.65
2023-05-08T15:26:22.762Z,26.90
2023-05-08T15:28:49.577Z,27.30
2023-05-08T15:31:16.398Z,27.75
2023-05-08T15:33:44.932Z,29.38
2023-05-08T15:36:13.451Z,27.20
2023-05-08T15:38:41.143Z,29.33
2023-05-08T15:41:08.035Z,24.70
2023-05-08T15:43:34.540Z,24.63
2023-05-08T15:46:01.104Z,28.23
2023-05-08T15:48:27.661Z,23.48
2023-05-08T15:50:54.155Z,25.15
2023-05-08T15:53:20.705Z,26.02
2023-05-08T15:55:47.316Z,25.67
2023-05-08T15:58:13.858Z,25.27
2023-05-08T16:00:44.551Z,27.55
2023-05-08T16:03:12.253Z,26.02
2023-05-08T16:05:39.574Z,25.55
2023-05-08T16:08:07.411Z,26.60
2023-05-08T16:10:34.277Z,25.48
2023-05-08T16:13:00.881Z,27.38
2023-05-08T16:15:27.424Z,27.70
2023-05-08T16:17:54.114Z,27.75
2023-05-08T16:20:20.770Z,24.83
2023-05-08T16:22:47.291Z,25.50
2023-05-08T16:25:14.075Z,26.08
2023-05-08T16:27:40.828Z,26.55
2023-05-08T16:30:08.004Z,27.77
2023-05-08T16:32:34.597Z,25.17
2023-05-08T16:35:01.252Z,27.27
2023-05-08T16:37:27.865Z,27.30
2023-05-08T16:39:54.445Z,28.08
2023-05-08T16:42:21.000Z,26.10
2023-05-08T16:44:47.483Z,25.90
2023-05-08T16:47:14.031Z,25.77
2023-05-08T16:49:40.683Z,24.50
2023-05-08T16:52:07.379Z,22.92
2023-05-08T16:54:33.985Z,24.00
2023-05-08T16:57:00.552Z,21.85
2023-05-08T16:59:27.142Z,22.48
2023-05-08T17:01:53.705Z,22.17
2023-05-08T17:04:20.299Z,21.27
2023-05-08T17:06:46.895Z,20.63
2023-05-08T17:09:13.391Z,19.83
2023-05-08T17:11:40.380Z,20.80
2023-05-08T17:14:07.088Z,20.60
2023-05-08T17:16:33.620Z,20.65
2023-05-08T17:19:00.567Z,21.00
2023-05-08T17:21:27.088Z,22.00
2023-05-08T17:23:53.675Z,20.63
2023-05-08T17:26:21.691Z,22.63
2023-05-08T17:28:48.209Z,20.98
2023-05-08T17:31:15.895Z,20.42
2023-05-08T17:33:42.570Z,20.65
2023-05-08T17:36:09.436Z,26.15
2023-05-08T17:38:38.290Z,26.05
2023-05-08T17:41:04.818Z,26.33
2023-05-08T17:43:31.533Z,26.10
2023-05-08T17:45:58.193Z,26.02
2023-05-08T17:48:25.178Z,26.75
2023-05-08T17:50:51.660Z,24.95
2023-05-08T17:53:19.918Z,24.55
2023-05-08T17:55:46.390Z,23.70
2023-05-08T17:58:12.929Z,23.60
2023-05-08T18:00:39.599Z,24.13
2023-05-08T18:03:06.242Z,24.05
2023-05-08T18:05:33.026Z,24.17
2023-05-08T18:07:59.662Z,24.25
2023-05-08T18:10:26.228Z,22.92
2023-05-08T18:12:52.810Z,24.35
2023-05-08T18:15:19.420Z,23.23
2023-05-08T18:17:46.003Z,24.73
2023-05-08T18:20:12.801Z,22.92
2023-05-08T18:22:39.454Z,23.10
2023-05-08T18:25:06.267Z,24.52
2023-05-08T18:27:34.349Z,23.27
2023-05-08T18:30:01.115Z,23.98
2023-05-08T18:32:27.769Z,24.45
2023-05-08T18:34:54.392Z,24.65
2023-05-08T18:37:21.002Z,24.65
2023-05-08T18:39:47.495Z,24.40
2023-05-08T18:42:13.992Z,23.35
2023-05-08T18:44:40.976Z,25.05
2023-05-08T18:47:08.574Z,26.10
2023-05-08T18:49:35.871Z,26.92
2023-05-08T18:52:02.702Z,27.65
2023-05-08T18:54:29.259Z,26.92
2023-05-08T18:56:55.895Z,26.95
2023-05-08T18:59:22.509Z,24.92
2023-05-08T19:01:50.473Z,25.98
2023-05-08T19:04:17.054Z,25.48
2023-05-08T19:06:43.638Z,27.35
2023-05-08T19:09:10.379Z,25.30
2023-05-08T19:11:36.978Z,27.75
2023-05-08T19:14:03.988Z,28.67
2023-05-08T19:16:30.614Z,26.45
2023-05-08T19:18:57.206Z,26.33
2023-05-08T19:21:23.782Z,27.95
2023-05-08T19:23:50.861Z,29.38
2023-05-08T19:26:18.082Z,29.77
2023-05-08T19:28:44.640Z,29.08
2023-05-08T19:31:11.228Z,30.45
2023-05-08T19:33:37.801Z,27.98
2023-05-08T19:36:04.363Z,32.50
2023-05-08T19:38:30.944Z,28.95
2023-05-08T19:40:58.061Z,26.88
2023-05-08T19:43:26.198Z,29.75
2023-05-08T19:45:52.948Z,30.42
2023-05-08T19:48:20.094Z,32.22
2023-05-08T19:50:46.947Z,29.80
2023-05-08T19:53:13.721Z,31.38
2023-05-08T19:55:40.393Z,31.38
2023-05-08T19:58:06.864Z,31.30
2023-05-08T20:00:33.474Z,30.80
2023-05-08T20:03:00.032Z,31.17
2023-05-08T20:05:26.736Z,30.98
2023-05-08T20:07:53.390Z,31.50
2023-05-08T20:10:19.932Z,28.88
2023-05-08T20:12:46.480Z,32.13
2023-05-08T20:15:13.251Z,31.63
2023-05-08T20:17:39.956Z,34.78
2023-05-08T20:20:07.187Z,31.20
2023-05-08T20:22:33.660Z,33.75
2023-05-08T20:25:02.860Z,31.30
2023-05-08T20:27:30.750Z,34.23
2023-05-08T20:29:57.306Z,32.92
2023-05-08T20:32:23.930Z,33.13
2023-05-08T20:34:50.541Z,33.17
2023-05-08T20:37:17.218Z,34.65
2023-05-08T20:39:43.870Z,34.25
2023-05-08T20:42:10.539Z,34.78
2023-05-08T20:44:37.071Z,36.00
2023-05-08T20:47:03.617Z,36.40
2023-05-08T20:49:30.150Z,37.28
2023-05-08T20:51:56.692Z,36.17
2023-05-08T20:54:23.308Z,37.08
2023-05-08T20:56:49.770Z,38.78
2023-05-08T20:59:16.718Z,36.13
2023-05-08T21:01:43.442Z,36.80
2023-05-08T21:04:10.176Z,39.25
2023-05-08T21:06:36.770Z,36.78
2023-05-08T21:09:05.178Z,36.42
2023-05-08T21:11:33.174Z,37.42
2023-05-08T21:13:59.665Z,38.65
2023-05-08T21:16:26.891Z,38.22
2023-05-08T21:18:55.417Z,37.47
2023-05-08T21:21:23.367Z,39.90
2023-05-08T21:23:49.932Z,37.53
2023-05-08T21:26:17.949Z,37.08
2023-05-08T21:28:44.486Z,37.65
2023-05-08T21:31:11.036Z,38.72
2023-05-08T21:33:37.686Z,36.13
2023-05-08T21:36:04.324Z,35.78
2023-05-08T21:38:30.843Z,40.80
2023-05-08T21:40:57.512Z,38.83
2023-05-08T21:43:24.024Z,37.88
2023-05-08T21:45:50.625Z,37.80
2023-05-08T21:48:17.151Z,39.42
2023-05-08T21:50:43.675Z,40.40
2023-05-08T21:53:10.218Z,39.75
2023-05-08T21:55:36.823Z,41.13
2023-05-08T21:58:03.434Z,37.63
2023-05-08T22:00:29.992Z,37.50
2023-05-08T22:02:56.610Z,38.22
2023-05-08T22:05:24.341Z,40.22
2023-05-08T22:07:50.989Z,38.88
2023-05-08T22:10:17.645Z,41.45
2023-05-08T22:12:44.291Z,40.65
2023-05-08T22:15:25.722Z,37.85
2023-05-08T22:17:56.399Z,40.63
2023-05-08T22:20:23.087Z,37.65
2023-05-08T22:22:49.719Z,37.67
2023-05-08T22:25:16.308Z,38.22
2023-05-08T22:27:42.858Z,39.03
2023-05-08T22:30:09.502Z,38.15
2023-05-08T22:32:36.584Z,38.55
2023-05-08T22:35:03.421Z,38.08
2023-05-08T22:37:30.342Z,38.25
2023-05-08T22:39:56.915Z,37.78
2023-05-08T22:42:24.513Z,37.38
2023-05-08T22:44:51.288Z,38.58
2023-05-08T22:47:18.082Z,34.33
2023-05-08T22:49:45.042Z,33.70
2023-05-08T22:52:11.606Z,37.92
2023-05-08T22:54:38.110Z,37.05
2023-05-08T22:57:04.689Z,34.67
2023-05-08T22:59:31.239Z,36.85
2023-05-08T23:01:57.720Z,37.45
2023-05-08T23:04:24.350Z,38.70
2023-05-08T23:06:51.111Z,37.10
2023-05-08T23:09:17.592Z,38.22
2023-05-08T23:11:44.154Z,39.28
2023-05-08T23:14:10.642Z,36.55
2023-05-08T23:16:37.171Z,37.60
2023-05-08T23:19:04.592Z,35.65
2023-05-08T23:21:32.052Z,37.80
2023-05-08T23:23:58.902Z,36.88
2023-05-08T23:26:25.986Z,36.10
2023-05-08T23:28:52.691Z,34.72
2023-05-08T23:31:19.326Z,33.50
2023-05-08T23:33:45.905Z,33.00
2023-05-08T23:36:12.489Z,36.33
2023-05-08T23:38:39.048Z,33.15
2023-05-08T23:41:05.578Z,32.70
2023-05-08T23:43:32.306Z,32.33
2023-05-08T23:45:58.940Z,33.95
2023-05-08T23:48:26.504Z,30.80
2023-05-08T23:50:53.448Z,32.95
2023-05-08T23:53:19.985Z,31.30
2023-05-08T23:55:50.739Z,29.90
2023-05-08T23:58:18.347Z,32.77
